« 令和元年航空祭inKOMATSU(午後) 小松飛行場 2019/9/16 mon | トップページ | 定点 富山空港 2019/9/24 tue »

2019/09/23

令和元年航空祭inKOMATSU【帰投編】 小松飛行場 2019/9/16 mon

ブルーインパルスの展示飛行も終了して、余韻の残るエプロン。もう少し散策してみます。

20190916_rjnk_300f367315

オワは、あんこう食べたいよなぁ

20190916_rjnk_301f367315

黄色い目

20190916_rjnk_302r576907

赤い目

20190916_rjnk_303b6465

CSE558 RJNK-ZSPD B-6465 A319-115

RJNK 160500Z 36013KT 9999 FEW008 BKN060 28/21 Q1004

20190916_rjnk_304f828816

82-8816 F-15J 303SQ

20190916_rjnk_305f638539

14時過ぎには追い出しされ、イエローラインで列線

20190916_rjnk_306jg41917

人力命の陸さん

20190916_rjnk_307u853253

西側でも出発

20190916_rjnk_308u853253

85-3253 U-4 CAF Z01

20190916_rjnk_309ja12rk

JTA37 RJNK-ROAH JA12RK B737-8Q3

20190916_rjnk_310jg41917

陸自さんのエンジンスタートに海自さんは興味深々

20190916_rjnk_311m9206

No2

20190916_rjnk_312m8456

こちらも廻しますよ

20190916_rjnk_313ja06rj

IBX24 RJNK-RJAA JA06RJ CRJ-702ER

20190916_rjnk_314jg73478

へりはコブラから

20190916_rjnk_315jg73478

JG73478 AH-1S VATH A478

20190916_rjnk_316r576907

赤い目さんもエンジンスタート

20190916_rjnk_317jg41917

続々さよなら

20190916_rjnk_318m9206

一部で話題の飛勤隊女史

20190916_rjnk_319jg41917

JG41917 UH-1J MH H917

RJNK 160600Z 35014KT 9999 FEW015 SCT060 28/21 Q1004

20190916_rjnk_320f638539

赤帽の大きい象さん

20190916_rjnk_321t215062

トレーナーも出発

20190916_rjnk_322m9206

9206 U-36A VC-91 Q06

20190916_rjnk_323m8456

20190916_rjnk_324t215062

21-5062 T-400 41FTS R62

20190916_rjnk_325c881208

青鯨さん

20190916_rjnk_326m8456

8456 SH-60K HS-23 O56

20190916_rjnk_327r576907

あと何回見れるかな

20190916_rjnk_328r576907

お手振りしました。

20190916_rjnk_329c881208

88-1208 KC-2 403SQ C08

20190916_rjnk_330r576907

57-6907 RF-4E 501SQ ??11

20190916_rjnk_331f638539

63-8539 F-2A 3SQ Manmos01

20190916_rjnk_332f638539

翼フリフリ

20190916_rjnk_333lbi

皆さん、帰路も楽しくね。

小松航空祭おしまい

20190916_rjnk_339pst

|

« 令和元年航空祭inKOMATSU(午後) 小松飛行場 2019/9/16 mon | トップページ | 定点 富山空港 2019/9/24 tue »

小松飛行場」カテゴリの記事

コメント

コメントを書く



(ウェブ上には掲載しません)


コメントは記事投稿者が公開するまで表示されません。



« 令和元年航空祭inKOMATSU(午後) 小松飛行場 2019/9/16 mon | トップページ | 定点 富山空港 2019/9/24 tue »